createdAt,value
2019-05-02T00:01:30.235Z,14.70
2019-05-02T00:03:04.550Z,14.70
2019-05-02T00:04:36.321Z,14.70
2019-05-02T00:06:09.328Z,14.70
2019-05-02T00:07:42.240Z,14.60
2019-05-02T00:09:14.964Z,14.60
2019-05-02T00:10:47.678Z,14.60
2019-05-02T00:12:19.891Z,14.60
2019-05-02T00:13:52.605Z,14.60
2019-05-02T00:15:25.137Z,14.60
2019-05-02T00:16:57.484Z,14.60
2019-05-02T00:18:31.970Z,14.60
2019-05-02T00:20:06.832Z,14.50
2019-05-02T00:21:42.716Z,14.50
2019-05-02T00:23:13.307Z,14.50
2019-05-02T00:24:46.422Z,14.50
2019-05-02T00:26:18.516Z,14.40
2019-05-02T00:27:50.744Z,14.40
2019-05-02T00:29:23.742Z,14.40
2019-05-02T00:30:57.106Z,14.40
2019-05-02T00:32:29.204Z,14.40
2019-05-02T00:34:01.347Z,14.40
2019-05-02T00:35:33.560Z,14.40
2019-05-02T00:37:05.756Z,14.40
2019-05-02T00:38:39.751Z,14.40
2019-05-02T00:40:12.593Z,14.30
2019-05-02T00:41:44.694Z,14.30
2019-05-02T00:43:16.934Z,14.30
2019-05-02T00:44:49.192Z,14.30
2019-05-02T00:46:21.576Z,14.30
2019-05-02T00:48:00.561Z,14.20
2019-05-02T00:49:35.538Z,14.20
2019-05-02T00:51:06.818Z,14.20
2019-05-02T00:52:38.968Z,14.20
2019-05-02T00:54:11.100Z,14.20
2019-05-02T00:55:43.329Z,14.10
2019-05-02T00:57:19.937Z,14.10
2019-05-02T00:58:49.454Z,14.10
2019-05-02T01:00:22.006Z,14.10
2019-05-02T01:02:29.000Z,14.10
2019-05-02T01:04:06.295Z,14.10
2019-05-02T01:05:40.267Z,14.00
2019-05-02T01:07:12.905Z,14.00
2019-05-02T01:08:45.030Z,13.90
2019-05-02T01:10:21.189Z,14.00
2019-05-02T01:11:51.566Z,13.90
2019-05-02T01:13:23.796Z,13.90
2019-05-02T01:14:55.893Z,13.80
2019-05-02T01:16:28.091Z,13.80
2019-05-02T01:18:01.030Z,13.80
2019-05-02T01:19:34.288Z,13.80
2019-05-02T01:21:06.527Z,13.70
2019-05-02T01:22:38.679Z,13.70
2019-05-02T01:24:10.751Z,13.70
2019-05-02T01:25:47.236Z,13.70
2019-05-02T01:27:41.272Z,13.70
2019-05-02T01:29:19.466Z,13.70
2019-05-02T01:31:13.286Z,13.70
2019-05-02T01:33:01.312Z,13.70
2019-05-02T01:34:40.284Z,13.60
2019-05-02T01:36:32.080Z,13.60
2019-05-02T01:38:21.569Z,13.50
2019-05-02T01:39:53.757Z,13.50
2019-05-02T01:41:29.204Z,13.50
2019-05-02T01:43:19.802Z,13.40
2019-05-02T01:44:52.249Z,13.40
2019-05-02T01:46:24.485Z,13.40
2019-05-02T01:47:56.736Z,13.40
2019-05-02T01:49:28.974Z,13.40
2019-05-02T01:51:04.560Z,13.40
2019-05-02T01:52:35.074Z,13.40
2019-05-02T01:54:10.184Z,13.40
2019-05-02T01:55:41.257Z,13.40
2019-05-02T01:57:13.367Z,13.40
2019-05-02T01:58:45.631Z,13.30
2019-05-02T02:00:17.992Z,13.30
2019-05-02T02:01:53.269Z,13.30
2019-05-02T02:03:24.220Z,13.20
2019-05-02T02:04:56.908Z,13.20
2019-05-02T02:06:30.216Z,13.10
2019-05-02T02:08:02.360Z,13.00
2019-05-02T02:09:34.608Z,13.00
2019-05-02T02:11:08.664Z,12.90
2019-05-02T02:12:41.211Z,12.90
2019-05-02T02:14:18.375Z,12.80
2019-05-02T02:15:49.018Z,12.80
2019-05-02T02:17:21.273Z,12.70
2019-05-02T02:19:03.999Z,12.70
2019-05-02T02:20:45.124Z,12.60
2019-05-02T02:22:33.926Z,12.60
2019-05-02T02:24:08.877Z,12.50
2019-05-02T02:25:48.608Z,12.50
2019-05-02T02:27:24.603Z,12.50
2019-05-02T02:28:56.228Z,12.50
2019-05-02T02:30:28.334Z,12.50
2019-05-02T02:32:00.450Z,12.50
2019-05-02T02:33:32.726Z,12.50
2019-05-02T02:35:09.909Z,12.50
2019-05-02T02:36:39.759Z,12.40
2019-05-02T02:38:12.051Z,12.50
2019-05-02T02:39:48.400Z,12.50
2019-05-02T02:41:18.317Z,12.40
2019-05-02T02:42:50.726Z,12.40
2019-05-02T02:44:39.947Z,12.40
2019-05-02T02:46:19.775Z,12.40
2019-05-02T02:47:52.957Z,12.30
2019-05-02T02:49:25.952Z,12.30
2019-05-02T02:50:58.189Z,12.30
2019-05-02T02:52:30.285Z,12.20
2019-05-02T02:54:03.870Z,12.20
2019-05-02T02:55:36.670Z,12.20
2019-05-02T02:57:20.591Z,12.20
2019-05-02T02:58:47.888Z,12.10
2019-05-02T03:00:17.390Z,12.10
2019-05-02T03:01:49.648Z,12.10
2019-05-02T03:03:28.020Z,12.10
2019-05-02T03:04:55.894Z,12.00
2019-05-02T03:06:28.146Z,12.00
2019-05-02T03:08:05.505Z,12.00
2019-05-02T03:09:34.476Z,12.00
2019-05-02T03:11:06.954Z,11.90
2019-05-02T03:13:04.740Z,11.90
2019-05-02T03:14:47.187Z,11.90
2019-05-02T03:16:18.425Z,11.90
2019-05-02T03:17:50.540Z,11.90
2019-05-02T03:19:23.296Z,11.90
2019-05-02T03:20:55.570Z,11.90
2019-05-02T03:22:27.677Z,11.90
2019-05-02T03:24:03.205Z,11.90
2019-05-02T03:25:49.717Z,11.90
2019-05-02T03:27:08.027Z,11.90
2019-05-02T03:28:40.286Z,12.00
2019-05-02T03:30:29.270Z,11.90
2019-05-02T03:31:46.543Z,11.90
2019-05-02T03:33:18.958Z,11.90
2019-05-02T03:34:53.644Z,11.90
2019-05-02T03:36:30.072Z,11.80
2019-05-02T03:38:00.308Z,11.80
2019-05-02T03:39:32.564Z,11.80
2019-05-02T03:41:04.663Z,11.80
2019-05-02T03:42:44.809Z,11.80
2019-05-02T03:44:24.617Z,11.70
2019-05-02T03:45:46.307Z,11.70
2019-05-02T03:47:18.539Z,11.70
2019-05-02T03:48:50.819Z,11.70
2019-05-02T03:50:31.393Z,11.70
2019-05-02T03:52:03.095Z,11.70
2019-05-02T03:53:32.106Z,11.70
2019-05-02T03:55:04.191Z,11.70
2019-05-02T03:56:36.256Z,11.70
2019-05-02T03:58:14.041Z,11.70
2019-05-02T03:59:42.513Z,11.70
2019-05-02T04:01:14.679Z,11.70
2019-05-02T04:02:58.902Z,11.70
2019-05-02T04:04:22.761Z,11.70
2019-05-02T04:05:55.125Z,11.70
2019-05-02T04:07:27.553Z,11.70
2019-05-02T04:09:01.885Z,11.70
2019-05-02T04:11:11.699Z,11.70
2019-05-02T04:12:44.266Z,11.70
2019-05-02T04:14:36.608Z,11.70
2019-05-02T04:15:50.493Z,11.70
2019-05-02T04:17:28.534Z,11.60
2019-05-02T04:18:58.380Z,11.60
2019-05-02T04:20:30.778Z,11.50
2019-05-02T04:22:08.679Z,11.50
2019-05-02T04:23:37.755Z,11.50
2019-05-02T04:25:10.096Z,11.60
2019-05-02T04:26:52.626Z,11.50
2019-05-02T04:28:16.597Z,11.60
2019-05-02T04:29:48.756Z,11.50
2019-05-02T04:31:24.687Z,11.60
2019-05-02T04:32:55.833Z,11.60
2019-05-02T04:34:28.379Z,11.50
2019-05-02T04:36:00.620Z,11.50
2019-05-02T04:37:34.491Z,11.50
2019-05-02T04:39:12.708Z,11.60
2019-05-02T04:40:46.362Z,11.50
2019-05-02T04:42:19.693Z,11.50
2019-05-02T04:43:55.910Z,11.50
2019-05-02T04:45:29.706Z,11.50
2019-05-02T04:47:02.772Z,11.50
2019-05-02T04:48:34.809Z,11.60
2019-05-02T04:50:07.626Z,11.60
2019-05-02T04:51:39.797Z,11.60
2019-05-02T04:53:11.988Z,11.60
2019-05-02T04:54:44.102Z,11.60
2019-05-02T04:56:18.521Z,11.70
2019-05-02T04:57:51.070Z,11.70
2019-05-02T04:59:23.562Z,11.60
2019-05-02T05:01:01.066Z,11.60
2019-05-02T05:02:36.720Z,11.60
2019-05-02T05:04:03.984Z,11.60
2019-05-02T05:05:40.005Z,11.60
2019-05-02T05:07:10.408Z,11.60
2019-05-02T05:08:42.692Z,11.60
2019-05-02T05:10:14.816Z,11.60
2019-05-02T05:11:48.182Z,11.60
2019-05-02T05:13:23.279Z,11.60
2019-05-02T05:14:54.623Z,11.70
2019-05-02T05:16:28.620Z,11.70
2019-05-02T05:18:04.566Z,11.70
2019-05-02T05:19:34.860Z,11.70
2019-05-02T05:21:10.255Z,11.70
2019-05-02T05:22:44.148Z,11.90
2019-05-02T05:24:42.308Z,11.90
2019-05-02T05:26:13.602Z,11.90
2019-05-02T05:27:47.844Z,12.00
2019-05-02T05:29:23.233Z,12.00
2019-05-02T05:30:53.910Z,12.00
2019-05-02T05:32:28.054Z,12.00
2019-05-02T05:34:00.068Z,12.00
2019-05-02T05:35:32.221Z,12.00
2019-05-02T05:37:09.400Z,12.00
2019-05-02T05:38:40.624Z,12.10
2019-05-02T05:40:14.627Z,12.10
2019-05-02T05:41:50.862Z,12.10
2019-05-02T05:43:21.049Z,12.20
2019-05-02T05:44:53.344Z,12.20
2019-05-02T05:46:27.758Z,12.10
2019-05-02T05:48:01.085Z,12.20
2019-05-02T05:49:33.629Z,12.10
2019-05-02T05:51:07.282Z,12.20
2019-05-02T05:52:42.437Z,12.20
2019-05-02T05:54:13.834Z,12.30
2019-05-02T05:55:47.329Z,12.30
2019-05-02T05:57:21.208Z,12.30
2019-05-02T05:58:53.517Z,12.40
2019-05-02T06:00:27.654Z,12.40
2019-05-02T06:02:00.091Z,12.40
2019-05-02T06:03:34.052Z,12.50
2019-05-02T06:05:07.904Z,12.50
2019-05-02T06:06:40.232Z,12.50
2019-05-02T06:08:13.839Z,12.50
2019-05-02T06:09:47.855Z,12.60
2019-05-02T06:11:21.847Z,12.60
2019-05-02T06:12:54.153Z,12.70
2019-05-02T06:14:26.523Z,12.70
2019-05-02T06:16:02.620Z,12.70
2019-05-02T06:17:32.869Z,12.70
2019-05-02T06:19:05.160Z,12.80
2019-05-02T06:20:37.275Z,12.90
2019-05-02T06:22:09.443Z,12.90
2019-05-02T06:23:41.723Z,12.90
2019-05-02T06:25:16.013Z,12.90
2019-05-02T06:26:49.978Z,13.00
2019-05-02T06:28:22.290Z,13.00
2019-05-02T06:29:56.078Z,13.10
2019-05-02T06:31:29.079Z,13.20
2019-05-02T06:33:01.275Z,13.30
2019-05-02T06:34:33.543Z,13.30
2019-05-02T06:36:05.647Z,13.40
2019-05-02T06:37:40.587Z,13.40
2019-05-02T06:39:12.239Z,13.50
2019-05-02T06:40:46.482Z,13.50
2019-05-02T06:42:18.525Z,13.50
2019-05-02T06:43:50.786Z,13.60
2019-05-02T06:45:23.141Z,13.70
2019-05-02T06:46:59.188Z,13.80
2019-05-02T06:48:30.504Z,13.70
2019-05-02T06:50:03.262Z,13.80
2019-05-02T06:51:35.476Z,13.80
2019-05-02T06:53:09.539Z,13.90
2019-05-02T06:54:41.782Z,14.00
2019-05-02T06:56:14.114Z,14.00
2019-05-02T06:57:46.398Z,14.10
2019-05-02T06:59:20.261Z,14.20
2019-05-02T07:00:57.999Z,14.20
2019-05-02T07:02:28.223Z,14.30
2019-05-02T07:04:04.125Z,14.30
2019-05-02T07:05:35.764Z,14.40
2019-05-02T07:07:08.027Z,14.40
2019-05-02T07:08:40.383Z,14.50
2019-05-02T07:10:12.959Z,14.70
2019-05-02T07:11:56.624Z,15.10
2019-05-02T07:13:19.468Z,15.50
2019-05-02T07:14:56.089Z,16.10
2019-05-02T07:16:45.337Z,16.60
2019-05-02T07:18:18.043Z,17.00
2019-05-02T07:19:53.166Z,17.40
2019-05-02T07:21:25.280Z,17.70
2019-05-02T07:22:57.407Z,18.00
2019-05-02T07:24:30.739Z,18.30
2019-05-02T07:26:03.528Z,18.50
2019-05-02T07:27:35.816Z,18.40
2019-05-02T07:29:07.939Z,18.30
2019-05-02T07:30:40.255Z,18.10
2019-05-02T07:32:12.518Z,18.00
2019-05-02T07:33:44.740Z,17.90
2019-05-02T07:35:19.374Z,18.10
2019-05-02T07:36:51.028Z,18.30
2019-05-02T07:38:25.770Z,18.30
2019-05-02T07:39:57.140Z,18.40
2019-05-02T07:41:30.280Z,18.70
2019-05-02T07:43:02.604Z,19.00
2019-05-02T07:44:34.975Z,19.20
2019-05-02T07:46:07.207Z,19.40
2019-05-02T07:47:40.341Z,19.70
2019-05-02T07:49:13.496Z,19.90
2019-05-02T07:50:46.556Z,20.20
2019-05-02T07:52:19.948Z,20.40
2019-05-02T07:53:55.171Z,20.60
2019-05-02T07:55:26.156Z,20.80
2019-05-02T07:56:58.269Z,21.10
2019-05-02T07:58:30.361Z,21.30
2019-05-02T08:00:03.061Z,21.40
2019-05-02T08:01:35.302Z,21.50
2019-05-02T08:03:07.608Z,21.60
2019-05-02T08:04:43.547Z,21.70
2019-05-02T08:06:14.016Z,21.80
2019-05-02T08:07:46.160Z,21.90
2019-05-02T08:09:18.404Z,21.90
2019-05-02T08:10:53.373Z,21.90
2019-05-02T08:12:24.728Z,21.90
2019-05-02T08:14:00.315Z,21.90
2019-05-02T08:15:31.305Z,21.80
2019-05-02T08:17:05.676Z,21.70
2019-05-02T08:18:37.821Z,21.70
2019-05-02T08:20:13.750Z,21.70
2019-05-02T08:21:44.234Z,21.70
2019-05-02T08:23:20.437Z,21.70
2019-05-02T08:24:50.602Z,21.90
2019-05-02T08:26:23.515Z,22.00
2019-05-02T08:28:16.040Z,22.00
2019-05-02T08:29:48.698Z,22.00
2019-05-02T08:31:21.005Z,22.00
2019-05-02T08:32:53.378Z,21.90
2019-05-02T08:34:30.014Z,22.00
2019-05-02T08:36:02.272Z,21.90
2019-05-02T08:37:35.412Z,21.90
2019-05-02T08:39:08.598Z,21.90
2019-05-02T08:40:42.323Z,21.90
2019-05-02T08:42:15.070Z,21.90
2019-05-02T08:43:47.243Z,21.90
2019-05-02T08:45:19.472Z,21.90
2019-05-02T08:46:53.259Z,22.00
2019-05-02T08:48:25.663Z,21.90
2019-05-02T08:49:57.978Z,22.00
2019-05-02T08:51:30.104Z,22.10
2019-05-02T08:53:02.167Z,22.10
2019-05-02T08:54:34.298Z,22.10
2019-05-02T08:56:06.548Z,22.20
2019-05-02T08:57:38.726Z,22.30
2019-05-02T08:59:11.004Z,22.30
2019-05-02T09:00:43.618Z,22.30
2019-05-02T09:02:15.870Z,22.40
2019-05-02T09:03:55.474Z,22.40
2019-05-02T09:05:22.292Z,22.40
2019-05-02T09:06:58.636Z,22.50
2019-05-02T09:08:28.424Z,22.40
2019-05-02T09:10:05.926Z,22.50
2019-05-02T09:11:34.937Z,22.50
2019-05-02T09:13:07.040Z,22.50
2019-05-02T09:14:39.242Z,22.50
2019-05-02T09:16:12.092Z,22.50
2019-05-02T09:17:51.745Z,22.50
2019-05-02T09:19:21.190Z,22.50
2019-05-02T09:20:56.510Z,22.50
2019-05-02T09:22:26.863Z,22.50
2019-05-02T09:23:59.044Z,22.60
2019-05-02T09:25:32.434Z,22.60
2019-05-02T09:27:04.805Z,22.60
2019-05-02T09:28:36.894Z,22.50
2019-05-02T09:30:12.073Z,22.50
2019-05-02T09:31:46.044Z,22.60
2019-05-02T09:33:18.301Z,22.60
2019-05-02T09:34:51.827Z,22.60
2019-05-02T09:36:24.365Z,22.70
2019-05-02T09:37:56.468Z,22.70
2019-05-02T09:39:32.708Z,22.70
2019-05-02T09:41:15.351Z,22.70
2019-05-02T09:42:36.999Z,22.70
2019-05-02T09:44:14.552Z,22.70
2019-05-02T09:45:43.943Z,22.80
2019-05-02T09:47:27.413Z,22.80
2019-05-02T09:49:02.837Z,22.90
2019-05-02T09:50:34.364Z,23.00
2019-05-02T09:52:05.753Z,23.00
2019-05-02T09:53:37.970Z,23.10
2019-05-02T09:55:12.214Z,23.10
2019-05-02T09:56:44.579Z,23.10
2019-05-02T09:58:21.272Z,23.10
2019-05-02T09:59:54.757Z,23.10
2019-05-02T10:01:37.910Z,23.00
2019-05-02T10:03:12.053Z,23.00
2019-05-02T10:04:44.483Z,23.00
2019-05-02T10:06:18.290Z,23.00
2019-05-02T10:07:52.444Z,23.00
2019-05-02T10:09:27.179Z,23.00
2019-05-02T10:10:59.092Z,23.00
2019-05-02T10:12:32.118Z,23.00
2019-05-02T10:14:04.807Z,23.10
2019-05-02T10:15:37.052Z,23.00
2019-05-02T10:17:09.420Z,23.10
2019-05-02T10:18:43.073Z,23.10
2019-05-02T10:20:15.937Z,23.10
2019-05-02T10:21:52.447Z,23.20
2019-05-02T10:23:23.437Z,23.20
2019-05-02T10:24:55.917Z,23.30
2019-05-02T10:26:28.096Z,23.30
2019-05-02T10:28:02.120Z,23.40
2019-05-02T10:29:34.594Z,23.40
2019-05-02T10:31:06.826Z,23.50
2019-05-02T10:32:39.047Z,23.50
2019-05-02T10:34:16.293Z,23.50
2019-05-02T10:35:47.075Z,23.60
2019-05-02T10:37:19.171Z,23.60
2019-05-02T10:38:54.786Z,23.60
2019-05-02T10:40:25.619Z,23.50
2019-05-02T10:41:57.767Z,23.50
2019-05-02T10:43:30.074Z,23.50
2019-05-02T10:45:02.851Z,23.50
2019-05-02T10:46:53.465Z,23.50
2019-05-02T10:48:28.462Z,23.50
2019-05-02T10:50:05.108Z,23.50
2019-05-02T10:51:41.930Z,23.40
2019-05-02T10:53:15.729Z,23.40
2019-05-02T10:54:45.651Z,23.40
2019-05-02T10:56:17.850Z,23.40
2019-05-02T10:57:49.914Z,23.30
2019-05-02T10:59:22.184Z,23.30
2019-05-02T11:00:54.548Z,23.30
2019-05-02T11:02:55.240Z,23.30
2019-05-02T11:04:29.370Z,23.30
2019-05-02T11:06:05.427Z,23.30
2019-05-02T11:07:35.977Z,23.30
2019-05-02T11:09:11.893Z,23.30
2019-05-02T11:10:44.607Z,23.40
2019-05-02T11:12:25.845Z,23.40
2019-05-02T11:14:22.518Z,23.40
2019-05-02T11:16:23.276Z,23.30
2019-05-02T11:17:55.447Z,23.30
2019-05-02T11:19:42.010Z,23.30
2019-05-02T11:21:14.253Z,23.30
2019-05-02T11:22:46.313Z,23.40
2019-05-02T11:24:18.458Z,23.30
2019-05-02T11:25:52.504Z,23.30
2019-05-02T11:27:24.570Z,23.30
2019-05-02T11:28:56.635Z,23.30
2019-05-02T11:30:28.885Z,23.40
2019-05-02T11:32:02.770Z,23.40
2019-05-02T11:33:35.197Z,23.30
2019-05-02T11:35:07.459Z,23.40
2019-05-02T11:36:41.507Z,23.40
2019-05-02T11:38:35.034Z,23.40
2019-05-02T11:39:52.906Z,23.50
2019-05-02T11:41:22.415Z,23.50
2019-05-02T11:42:57.177Z,23.50
2019-05-02T11:44:29.134Z,23.50
2019-05-02T11:46:06.952Z,23.60
2019-05-02T11:47:35.258Z,23.60
2019-05-02T11:49:07.336Z,23.60
2019-05-02T11:50:39.486Z,23.60
2019-05-02T11:52:11.899Z,23.60
2019-05-02T11:53:44.244Z,23.50
2019-05-02T11:55:19.122Z,23.40
2019-05-02T11:56:51.306Z,23.30
2019-05-02T11:58:24.519Z,23.20
2019-05-02T11:59:59.345Z,23.10
2019-05-02T12:01:37.032Z,23.10
2019-05-02T12:03:22.755Z,23.10
2019-05-02T12:04:55.649Z,23.10
2019-05-02T12:06:27.833Z,23.10
2019-05-02T12:08:07.305Z,23.00
2019-05-02T12:09:34.168Z,23.00
2019-05-02T12:11:08.423Z,23.00
2019-05-02T12:12:40.549Z,23.00
2019-05-02T12:14:12.822Z,23.00
2019-05-02T12:15:45.053Z,23.00
2019-05-02T12:17:17.280Z,23.10
2019-05-02T12:18:49.463Z,23.00
2019-05-02T12:20:22.797Z,23.00
2019-05-02T12:21:55.639Z,23.00
2019-05-02T12:23:27.840Z,23.00
2019-05-02T12:25:00.072Z,23.00
2019-05-02T12:26:32.538Z,23.00
2019-05-02T12:28:05.506Z,22.90
2019-05-02T12:29:37.604Z,22.80
2019-05-02T12:31:24.666Z,22.80
2019-05-02T12:32:56.936Z,22.80
2019-05-02T12:34:29.083Z,22.80
2019-05-02T12:36:02.617Z,22.80
2019-05-02T12:37:34.923Z,22.70
2019-05-02T12:39:07.662Z,22.70
2019-05-02T12:40:42.031Z,22.70
2019-05-02T12:42:14.169Z,22.60
2019-05-02T12:43:46.594Z,22.60
2019-05-02T12:45:18.914Z,22.50
2019-05-02T12:46:51.817Z,22.50
2019-05-02T12:48:24.108Z,22.40
2019-05-02T12:49:56.183Z,22.40
2019-05-02T12:51:28.433Z,22.40
2019-05-02T12:53:02.798Z,22.30
2019-05-02T12:54:34.584Z,22.40
2019-05-02T12:56:06.808Z,22.40
2019-05-02T12:57:39.112Z,22.40
2019-05-02T12:59:11.953Z,22.30
2019-05-02T13:00:44.296Z,22.40
2019-05-02T13:02:27.712Z,22.40
2019-05-02T13:04:08.460Z,22.40
2019-05-02T13:05:42.482Z,22.50
2019-05-02T13:07:14.609Z,22.50
2019-05-02T13:08:49.240Z,22.60
2019-05-02T13:10:33.387Z,22.50
2019-05-02T13:12:13.289Z,22.50
2019-05-02T13:13:45.877Z,22.50
2019-05-02T13:15:18.102Z,22.60
2019-05-02T13:16:53.425Z,22.60
2019-05-02T13:18:27.252Z,22.70
2019-05-02T13:20:01.500Z,22.70
2019-05-02T13:21:41.877Z,22.80
2019-05-02T13:23:43.986Z,22.80
2019-05-02T13:25:18.824Z,22.80
2019-05-02T13:26:52.011Z,22.80
2019-05-02T13:28:25.762Z,22.80
2019-05-02T13:29:58.379Z,22.80
2019-05-02T13:31:36.679Z,22.80
2019-05-02T13:33:12.269Z,22.80
2019-05-02T13:34:54.157Z,22.80
2019-05-02T13:36:49.376Z,22.70
2019-05-02T13:38:22.363Z,22.70
2019-05-02T13:40:03.588Z,22.70
2019-05-02T13:41:35.662Z,22.50
2019-05-02T13:43:07.932Z,22.50
2019-05-02T13:44:47.536Z,22.50
2019-05-02T13:46:22.205Z,22.50
2019-05-02T13:47:54.679Z,22.40
2019-05-02T13:49:26.836Z,22.40
2019-05-02T13:50:59.169Z,22.40
2019-05-02T13:52:33.203Z,22.40
2019-05-02T13:54:05.716Z,22.40
2019-05-02T13:55:43.416Z,22.40
2019-05-02T13:57:15.532Z,22.30
2019-05-02T13:58:47.661Z,22.30
2019-05-02T14:00:26.943Z,22.40
2019-05-02T14:02:00.338Z,22.30
2019-05-02T14:03:32.617Z,22.30
2019-05-02T14:05:07.376Z,22.30
2019-05-02T14:06:39.432Z,22.20
2019-05-02T14:08:36.882Z,22.20
2019-05-02T14:10:19.730Z,22.20
2019-05-02T14:12:17.292Z,22.10
2019-05-02T14:13:49.563Z,22.00
2019-05-02T14:15:23.988Z,21.90
2019-05-02T14:16:56.083Z,21.90
2019-05-02T14:18:29.477Z,21.90
2019-05-02T14:20:10.397Z,21.90
2019-05-02T14:21:36.339Z,21.90
2019-05-02T14:23:08.548Z,21.90
2019-05-02T14:24:42.175Z,21.90
2019-05-02T14:26:26.930Z,21.90
2019-05-02T14:27:53.740Z,21.90
2019-05-02T14:29:22.962Z,21.90
2019-05-02T14:30:55.220Z,22.00
2019-05-02T14:32:27.351Z,22.00
2019-05-02T14:34:17.465Z,22.10
2019-05-02T14:35:49.756Z,22.10
2019-05-02T14:37:22.711Z,22.10
2019-05-02T14:38:55.139Z,22.20
2019-05-02T14:40:31.918Z,22.20
2019-05-02T14:42:04.347Z,22.20
2019-05-02T14:43:52.614Z,22.20
2019-05-02T14:45:30.721Z,22.20
2019-05-02T14:46:58.290Z,22.10
2019-05-02T14:48:41.092Z,22.10
2019-05-02T14:50:23.165Z,22.10
2019-05-02T14:51:44.063Z,22.00
2019-05-02T14:53:16.802Z,22.00
2019-05-02T14:54:51.888Z,22.00
2019-05-02T14:56:58.908Z,22.00
2019-05-02T14:58:32.473Z,22.00
2019-05-02T15:00:06.105Z,22.00
2019-05-02T15:01:38.200Z,22.00
2019-05-02T15:03:12.811Z,22.00
2019-05-02T15:04:48.813Z,21.90
2019-05-02T15:06:19.242Z,21.90
2019-05-02T15:07:51.893Z,21.80
2019-05-02T15:09:26.767Z,21.80
2019-05-02T15:10:58.319Z,21.80
2019-05-02T15:12:32.434Z,21.80
2019-05-02T15:14:04.699Z,21.80
2019-05-02T15:15:40.904Z,21.70
2019-05-02T15:17:12.078Z,21.70
2019-05-02T15:18:47.517Z,21.70
2019-05-02T15:20:18.562Z,21.60
2019-05-02T15:21:52.519Z,21.60
2019-05-02T15:23:24.886Z,21.60
2019-05-02T15:24:57.181Z,21.50
2019-05-02T15:26:31.392Z,21.50
2019-05-02T15:28:03.451Z,21.50
2019-05-02T15:29:35.716Z,21.50
2019-05-02T15:31:12.384Z,21.60
2019-05-02T15:32:52.089Z,21.50
2019-05-02T15:34:36.969Z,21.50
2019-05-02T15:36:07.652Z,21.50
2019-05-02T15:37:41.650Z,21.40
2019-05-02T15:40:51.373Z,21.30
2019-05-02T15:42:24.625Z,21.40
2019-05-02T15:43:56.481Z,21.30
2019-05-02T15:45:29.084Z,21.30
2019-05-02T15:47:03.467Z,21.30
2019-05-02T15:48:35.392Z,21.30
2019-05-02T15:50:07.485Z,21.30
2019-05-02T15:51:43.725Z,21.30
2019-05-02T15:53:39.157Z,21.40
2019-05-02T15:55:11.621Z,21.30
2019-05-02T15:57:00.331Z,21.30
2019-05-02T15:58:27.956Z,21.30
2019-05-02T16:00:01.635Z,21.30
2019-05-02T16:01:48.828Z,21.30
2019-05-02T16:03:22.841Z,21.20
2019-05-02T16:04:57.025Z,21.20
2019-05-02T16:06:31.569Z,21.20
2019-05-02T16:08:07.258Z,21.10
2019-05-02T16:09:37.891Z,21.10
2019-05-02T16:11:13.757Z,21.10
2019-05-02T16:12:46.176Z,21.10
2019-05-02T16:14:18.338Z,21.10
2019-05-02T16:15:50.455Z,21.00
2019-05-02T16:17:26.584Z,21.00
2019-05-02T16:18:58.665Z,21.00
2019-05-02T16:20:49.378Z,21.00
2019-05-02T16:22:23.868Z,21.00
2019-05-02T16:24:14.873Z,21.00
2019-05-02T16:25:47.292Z,21.00
2019-05-02T16:27:25.857Z,21.00
2019-05-02T16:28:55.569Z,21.00
2019-05-02T16:30:27.888Z,20.90
2019-05-02T16:32:07.917Z,20.90
2019-05-02T16:33:41.711Z,20.90
2019-05-02T16:35:17.222Z,20.90
2019-05-02T16:36:51.854Z,21.00
2019-05-02T16:38:26.776Z,20.90
2019-05-02T16:39:58.260Z,20.90
2019-05-02T16:41:32.563Z,20.90
2019-05-02T16:43:04.983Z,20.80
2019-05-02T16:44:37.232Z,20.90
2019-05-02T16:46:11.867Z,20.80
2019-05-02T16:47:43.695Z,20.80
2019-05-02T16:49:18.665Z,20.70
2019-05-02T16:50:50.162Z,20.70
2019-05-02T16:52:22.436Z,20.70
2019-05-02T16:53:55.999Z,20.60
2019-05-02T16:55:28.946Z,20.60
2019-05-02T16:57:01.761Z,20.50
2019-05-02T16:58:37.943Z,20.40
2019-05-02T17:00:11.236Z,20.40
2019-05-02T17:01:43.050Z,20.40
2019-05-02T17:03:17.455Z,20.30
2019-05-02T17:04:54.269Z,20.30
2019-05-02T17:06:26.074Z,20.30
2019-05-02T17:08:19.919Z,20.20
2019-05-02T17:10:03.353Z,20.10
2019-05-02T17:11:38.399Z,20.10
2019-05-02T17:13:12.500Z,20.00
2019-05-02T17:15:04.148Z,20.00
2019-05-02T17:16:36.398Z,19.90
2019-05-02T17:18:13.430Z,19.90
2019-05-02T17:19:42.681Z,19.80
2019-05-02T17:21:14.900Z,19.80
2019-05-02T17:22:50.212Z,19.80
2019-05-02T17:24:24.606Z,19.80
2019-05-02T17:25:55.141Z,19.80
2019-05-02T17:27:27.432Z,19.70
2019-05-02T17:28:59.586Z,19.70
2019-05-02T17:30:38.685Z,19.60
2019-05-02T17:32:05.968Z,19.60
2019-05-02T17:33:38.247Z,19.60
2019-05-02T17:35:14.019Z,19.60
2019-05-02T17:36:45.863Z,19.60
2019-05-02T17:38:19.085Z,19.50
2019-05-02T17:39:52.505Z,19.40
2019-05-02T17:41:24.805Z,19.40
2019-05-02T17:43:01.685Z,19.30
2019-05-02T17:44:31.160Z,19.30
2019-05-02T17:46:04.584Z,19.20
2019-05-02T17:47:37.692Z,19.10
2019-05-02T17:49:11.804Z,19.10
2019-05-02T17:51:03.860Z,19.10
2019-05-02T17:52:42.718Z,19.10
2019-05-02T17:54:17.464Z,19.00
2019-05-02T17:55:49.324Z,19.00
2019-05-02T17:57:21.597Z,19.00
2019-05-02T17:58:58.149Z,18.90
2019-05-02T18:00:30.085Z,18.80
2019-05-02T18:02:06.635Z,18.80
2019-05-02T18:03:36.641Z,18.80
2019-05-02T18:05:08.895Z,18.70
2019-05-02T18:06:41.777Z,18.70
2019-05-02T18:08:14.892Z,18.70
2019-05-02T18:09:47.307Z,18.70
2019-05-02T18:11:19.405Z,18.70
2019-05-02T18:12:56.736Z,18.60
2019-05-02T18:14:25.910Z,18.50
2019-05-02T18:15:58.277Z,18.50
2019-05-02T18:17:31.785Z,18.50
2019-05-02T18:19:04.218Z,18.50
2019-05-02T18:20:37.121Z,18.50
2019-05-02T18:22:21.053Z,18.50
2019-05-02T18:23:44.621Z,18.50
2019-05-02T18:25:23.611Z,18.40
2019-05-02T18:26:51.704Z,18.40
2019-05-02T18:28:26.405Z,18.40
2019-05-02T18:29:58.300Z,18.40
2019-05-02T18:31:30.550Z,18.40
2019-05-02T18:33:07.081Z,18.30
2019-05-02T18:34:36.884Z,18.30
2019-05-02T18:36:09.178Z,18.20
2019-05-02T18:37:45.088Z,18.20
2019-05-02T18:39:15.289Z,18.20
2019-05-02T18:40:47.609Z,18.10
2019-05-02T18:42:23.808Z,18.10
2019-05-02T18:43:53.868Z,18.10
2019-05-02T18:45:28.583Z,18.10
2019-05-02T18:47:02.296Z,18.10
2019-05-02T18:48:36.539Z,18.10
2019-05-02T18:50:28.480Z,18.00
2019-05-02T18:52:01.800Z,18.00
2019-05-02T18:53:34.183Z,17.90
2019-05-02T18:55:06.540Z,17.90
2019-05-02T18:56:44.264Z,17.90
2019-05-02T18:58:13.022Z,17.80
2019-05-02T18:59:45.423Z,17.80
2019-05-02T19:01:20.756Z,17.70
2019-05-02T19:02:54.588Z,17.60
2019-05-02T19:04:35.272Z,17.50
2019-05-02T19:06:02.248Z,17.40
2019-05-02T19:07:35.887Z,17.40
2019-05-02T19:09:10.279Z,17.30
2019-05-02T19:11:01.278Z,17.20
2019-05-02T19:12:22.510Z,17.20
2019-05-02T19:13:52.715Z,17.10
2019-05-02T19:15:25.011Z,17.00
2019-05-02T19:16:58.131Z,17.00
2019-05-02T19:18:33.129Z,16.90
2019-05-02T19:20:14.548Z,16.90
2019-05-02T19:21:45.527Z,16.80
2019-05-02T19:23:18.050Z,16.70
2019-05-02T19:24:52.264Z,16.70
2019-05-02T19:26:24.348Z,16.60
2019-05-02T19:28:03.163Z,16.60
2019-05-02T19:29:35.419Z,16.60
2019-05-02T19:31:07.670Z,16.60
2019-05-02T19:32:41.610Z,16.50
2019-05-02T19:34:16.694Z,16.50
2019-05-02T19:35:50.001Z,16.40
2019-05-02T19:37:22.223Z,16.40
2019-05-02T19:38:57.448Z,16.40
2019-05-02T19:40:28.627Z,16.30
2019-05-02T19:42:01.769Z,16.30
2019-05-02T19:43:34.973Z,16.20
2019-05-02T19:45:11.781Z,16.20
2019-05-02T19:46:42.179Z,16.00
2019-05-02T19:48:14.685Z,16.10
2019-05-02T19:49:52.422Z,16.00
2019-05-02T19:51:23.963Z,15.90
2019-05-02T19:53:02.143Z,15.90
2019-05-02T19:54:33.912Z,15.90
2019-05-02T19:56:06.673Z,15.80
2019-05-02T19:57:38.819Z,15.80
2019-05-02T19:59:12.008Z,15.70
2019-05-02T20:00:46.282Z,15.80
2019-05-02T20:02:18.664Z,15.70
2019-05-02T20:03:52.063Z,15.60
2019-05-02T20:05:25.742Z,15.60
2019-05-02T20:06:58.141Z,15.60
2019-05-02T20:08:32.372Z,15.50
2019-05-02T20:10:04.890Z,15.40
2019-05-02T20:11:37.007Z,15.40
2019-05-02T20:13:09.237Z,15.30
2019-05-02T20:14:43.694Z,15.20
2019-05-02T20:16:36.712Z,15.20
2019-05-02T20:18:08.168Z,15.10